AirNav   Bose ProFlight Series 2 Headset
 
 609 users online  

FD65 Bartow High School Heliport
Bartow, Florida, USA

GOING TO BARTOW?


FAA INFORMATION EFFECTIVE 02 JANUARY 2020

Location

FAA Identifier: FD65
Lat/Long: 27-52-48.0940N 081-50-28.2950W
27-52.801567N 081-50.471583W
27.8800261,-81.8411931
(estimated)
Elevation: 116 ft. / 35 m (estimated)
Variation: 02W (1985)
Time zone: UTC -5 (UTC -4 during Daylight Saving Time)
Zip code: 33830

Heliport Operations

Heliport use: Private use. Permission required prior to landing
Activation date: 07/1986
Control tower: no
ARTCC: MIAMI CENTER
FSS: SAINT PETERSBURG FLIGHT SERVICE STATION
Attendance: ON CALL
Segmented circle: no

Heliport Communications

WX AWOS-3 at BOW (5 nm NE): 123.775 (863-533-9004)
WX AWOS-3PT at LAL (11 nm NW): 118.025 (863-834-2030)
WX AWOS-3 at X07 (12 nm E): 124.225 (863-678-1334)
WX ASOS at GIF (12 nm NE): 133.675 (863-956-2097)
WX AWOS-3 at PCM (19 nm NW): 120.025 (813-764-8259)

Nearby radio navigation aids

VOR radial/distance  VOR name  Freq  Var
LALr124/11.2LAKELAND VORTAC116.0001E

Heliport Services

Runway Information

Helipad H1

Dimensions: 15 x 15 ft. / 5 x 5 m
Surface: turf
Latitude: 27-52.801567N
Longitude: 081-50.471583W
Traffic pattern: leftleft

Heliport Ownership and Management from official FAA records

Ownership: Publicly-owned
Owner: POLK COUNTY SCHOOLS
BARTOW, FL 33830
Phone (863) 534-7400
Manager: TEDDY BROWN
1270 S BROADWAY
BARTOW, FL 33830
Phone 813-534-7400

Additional Remarks

PRIOR APPROVAL REQUIRED TO LAND; CALL AMGR ON 813-534-7400.
FOR CD CTC TAMPA APCH AT 813-878-2528

Instrument Procedures

There are no published instrument procedures at FD65.

Some nearby airports with instrument procedures:

KBOW - Bartow Executive Airport (5 nm NE)
KLAL - Lakeland Linder International Airport (11 nm NW)
X07 - Lake Wales Municipal Airport (12 nm E)
KGIF - Winter Haven Regional Airport (12 nm NE)
KPCM - Plant City Airport (19 nm NW)
 
Loc | Ops | Rwys | IFR | FBO | Links
Com | Nav | Svcs | Stats | Notes

Reliance Aviation
AirBoss

 
Area around FD65 (Bartow High School Heliport)
 
Road maps at: MapQuest Bing Google
 
Aerial photo
No photo
 
Sectional chart

 
Airport distance calculator
Flying to Bartow High School Heliport? Find the distance to fly.

From to FD65

Sunrise and sunset
Times for 19-Jan-2020
 Local
(UTC-5)
 Zulu
(UTC)
Morning civil twilight06:5511:55
Sunrise07:2012:20
Sunset17:5622:56
Evening civil twilight18:2123:21

Current date and time
Zulu (UTC)  19-Jan-2020 10:33:20
Local (UTC-5)  19-Jan-2020 05:33:20
 
METAR
KBOW 
5nm NE 
191015Z AUTO 00000KT 10SM 16/15 A3013 RMK AO2
KLAL 
11nm NW 
191015Z AUTO 00000KT 10SM CLR 15/14 A3014 RMK AO2 PNO
KX07 
12nm E 
191015Z AUTO 20006KT 8SM CLR 14/14 A3014 RMK A01
KGIF 
12nm NE 
190953Z AUTO 20005KT 10SM CLR 17/14 A3015 RMK AO2 SLP206 T01720144
KPCM 
19nm NW 
191015Z AUTO 16003KT 10SM CLR 16/16 A3015 RMK AO2
TAF
KLAL 
11nm NW 
190520Z 1906/2006 15005KT P6SM FEW090 BKN250 FM191500 22008KT P6SM VCSH BKN030 BKN100 FM192100 26008KT P6SM VCSH BKN010 OVC030 FM200200 32004KT P6SM SCT020 BKN035 AMD NOT SKED TIL 191100
NOTAMs
Click for the latest NOTAMs
NOTAMs are issued by the DoD/FAA and will open in a separate window not controlled by AirNav.

 

 
 

Would you like to see your business listed on this page?

 If your business provides an interesting product or service to pilots, flight crews, aircraft, or users of the Bartow High School Heliport, you should consider listing it here.  To start the listing process, click on the button below
 
Add a business
 

Other Pages about Bartow High School Heliport

Update a link
 
Copyright © AirNav, LLC. All rights reserved. Privacy Policy  Contact